KMYFKCRQ

Guest
Details From KMYF - Montgomery Fld
To KCRQ - Mc Clellan Palomar
Flight Number -
Tags generated
Created
Modified
Stats Distance 23 nm / 42 km
Max Altitude 1,200 ft / 366 m
Waypoints 3
Social Downloads 4
Likes 0
Share VATSIM

Download

Looking for another format? Having issues loading an existing format? Contact us
Advertisement - Login to hide

Notes

Basic altitude profile: - Ascent Rate: 2500ft/min - Ascent Speed: 250kts - Cruise Altitude: 3000ft - Cruise Speed: 110kts - Descent Rate: 1500ft/min - Descent Speed: 250kts Options: - Use NATs: yes - Use PACOTS: yes - Use low airways: yes - Use high airways: yes

Route

KMYF CARIF KCRQ

ID Type Via Altitude Latitude Longitude Leg Dist Tot Dist Heading (true) Name
O KMYF APT - 0 ft / 0 m 32.81574˚ -117.13970˚ - 0 nm - Montgomery Fld
CARIF FIX - 1,200 ft / 366 m 33.03860˚ -117.33271˚ 16 nm 16 nm 324° / 324° -
O KCRQ APT - 0 ft / 0 m 33.12827˚ -117.27997˚ 6 nm 22 nm 26° / 26° Mc Clellan Palomar

Altitude Profile

Advertisement - Login to hide

KMYF

Details ICAO KMYF
Name Montgomery Fld
Region United States
Timezone America/Los_Angeles (UTC-8.0)
Stats Elevation 427 ft / 130 m (AMSL)
Location 32.815737° -117.139705°
Runways 3
Magnetic Variation 11.529° E

METAR

KMYF 180253Z 01005KT 10SM CLR 17/05 A3000 RMK AO2 SLP157 T01670050 53025

Decode

TAF

Not found

Departure Runways

ID Width Length Bearing (true) Bearing (mag) Surface Threshold Offset Overrun Length
05 151 ft / 46 m 3,403 ft / 1,037 m 64.89° 53.36° Asphalt 390 ft / 119 m 0 ft / 0 m
10L 151 ft / 46 m 4,581 ft / 1,396 m 115.10° 103.57° Asphalt 0 ft / 0 m 0 ft / 0 m
10R 59 ft / 18 m 3,404 ft / 1,038 m 115.00° 103.47° Asphalt 0 ft / 0 m 0 ft / 0 m
23 151 ft / 46 m 3,403 ft / 1,037 m 244.89° 233.36° Asphalt 0 ft / 0 m 0 ft / 0 m
28L 59 ft / 18 m 3,404 ft / 1,038 m 295.00° 283.47° Asphalt 0 ft / 0 m 0 ft / 0 m
28R 151 ft / 46 m 4,581 ft / 1,396 m 295.10° 283.57° Asphalt 1,175 ft / 358 m 0 ft / 0 m

KCRQ

Details ICAO KCRQ (CLD)
Name Mc Clellan Palomar
Region United States
Timezone America/Los_Angeles (UTC-8.0)
Stats Elevation 331 ft / 101 m (AMSL)
Location 33.128268° -117.279967°
Runways 1
Magnetic Variation 11.618° E

METAR

KCRQ 180253Z 00000KT 10SM CLR 13/05 A2999 RMK AO2 SLP153 T01330050 53023

Decode

TAF

TAF KCRQ 172320Z 1800/1824 25009KT P6SM SKC FM180100 VRB04KT P6SM SKC FM182000 25009KT P6SM SKC

Decode

Destination Runways

ID Width Length Bearing (true) Bearing (mag) Surface Threshold Offset Overrun Length
06 151 ft / 46 m 4,954 ft / 1,510 m 79.08° 67.46° Asphalt 299 ft / 91 m 200 ft / 61 m
24 151 ft / 46 m 4,954 ft / 1,510 m 259.09° 247.47° Asphalt 0 ft / 0 m 200 ft / 61 m

Approach Navaids

Runway Type Ident Frequency Range Bearing (true) Bearing (mag) Slope Elevation
24 Localiser ICRQ 108.70 MHz 18 nm / 33 km 259.07° 247.46° - 325 ft / 99 m (AMSL)
24 Glidescope ICRQ 108.70 MHz 10 nm / 19 km 259.09° 247.47° 3.20° 319 ft / 97 m (AMSL)
24 DME ICRQ 108.70 MHz 18 nm / 33 km - - - 325 ft / 99 m (AMSL)